sensor_id;sensor_type;location;lat;lon;timestamp;pressure;altitude;pressure_sealevel;temperature;humidity
11268;BME280;49397;47.474;9.416;2023-06-19T00:01:43;95174.94;;;20.37;56.01
11268;BME280;49397;47.474;9.416;2023-06-19T00:04:09;95173.00;;;20.34;55.43
11268;BME280;49397;47.474;9.416;2023-06-19T00:06:35;95167.94;;;20.32;55.50
11268;BME280;49397;47.474;9.416;2023-06-19T00:09:00;95175.56;;;20.23;55.82
11268;BME280;49397;47.474;9.416;2023-06-19T00:11:26;95166.34;;;20.28;55.84
11268;BME280;49397;47.474;9.416;2023-06-19T00:13:52;95173.53;;;20.10;56.25
11268;BME280;49397;47.474;9.416;2023-06-19T00:16:18;95177.66;;;19.96;55.91
11268;BME280;49397;47.474;9.416;2023-06-19T00:18:45;95177.69;;;20.00;56.51
11268;BME280;49397;47.474;9.416;2023-06-19T00:21:11;95173.38;;;19.95;57.37
11268;BME280;49397;47.474;9.416;2023-06-19T00:23:36;95176.94;;;20.03;56.34
11268;BME280;49397;47.474;9.416;2023-06-19T00:26:02;95183.44;;;19.95;56.95
11268;BME280;49397;47.474;9.416;2023-06-19T00:28:29;95185.03;;;19.99;56.62
11268;BME280;49397;47.474;9.416;2023-06-19T00:30:54;95175.69;;;19.93;56.67
11268;BME280;49397;47.474;9.416;2023-06-19T00:33:20;95179.09;;;19.87;56.76
11268;BME280;49397;47.474;9.416;2023-06-19T00:35:45;95188.41;;;19.89;56.56
11268;BME280;49397;47.474;9.416;2023-06-19T00:38:11;95184.09;;;19.85;56.02
11268;BME280;49397;47.474;9.416;2023-06-19T00:40:37;95187.97;;;19.84;56.38
11268;BME280;49397;47.474;9.416;2023-06-19T00:43:03;95190.25;;;19.82;55.76
11268;BME280;49397;47.474;9.416;2023-06-19T00:45:29;95205.78;;;19.81;55.99
11268;BME280;49397;47.474;9.416;2023-06-19T00:47:55;95201.06;;;19.75;56.49
11268;BME280;49397;47.474;9.416;2023-06-19T00:50:23;95200.91;;;19.64;56.61
11268;BME280;49397;47.474;9.416;2023-06-19T00:52:49;95214.78;;;19.56;56.99
11268;BME280;49397;47.474;9.416;2023-06-19T00:55:16;95217.78;;;19.50;56.90
11268;BME280;49397;47.474;9.416;2023-06-19T00:57:42;95216.34;;;19.60;56.44
11268;BME280;49397;47.474;9.416;2023-06-19T01:00:09;95217.09;;;19.57;56.45
11268;BME280;49397;47.474;9.416;2023-06-19T01:02:37;95211.75;;;19.64;55.38
11268;BME280;49397;47.474;9.416;2023-06-19T01:05:03;95220.25;;;19.59;56.02
11268;BME280;49397;47.474;9.416;2023-06-19T01:07:50;95214.03;;;19.59;56.60
11268;BME280;49397;47.474;9.416;2023-06-19T01:10:33;95213.97;;;19.55;56.89
11268;BME280;49397;47.474;9.416;2023-06-19T01:13:04;95211.53;;;19.46;57.21
11268;BME280;49397;47.474;9.416;2023-06-19T01:15:32;95211.50;;;19.43;57.69
11268;BME280;49397;47.474;9.416;2023-06-19T01:17:58;95213.44;;;19.42;57.30
11268;BME280;49397;47.474;9.416;2023-06-19T01:20:24;95212.66;;;19.42;57.57
11268;BME280;49397;47.474;9.416;2023-06-19T01:22:50;95216.84;;;19.39;57.57
11268;BME280;49397;47.474;9.416;2023-06-19T01:25:15;95214.50;;;19.38;57.18
11268;BME280;49397;47.474;9.416;2023-06-19T01:27:41;95216.75;;;19.32;57.96
11268;BME280;49397;47.474;9.416;2023-06-19T01:30:11;95214.50;;;19.38;56.25
11268;BME280;49397;47.474;9.416;2023-06-19T01:33:00;95219.91;;;19.38;57.04
11268;BME280;49397;47.474;9.416;2023-06-19T01:35:29;95230.97;;;19.26;57.26
11268;BME280;49397;47.474;9.416;2023-06-19T01:37:56;95230.66;;;19.31;57.08
11268;BME280;49397;47.474;9.416;2023-06-19T01:40:23;95236.91;;;19.35;57.27
11268;BME280;49397;47.474;9.416;2023-06-19T01:42:53;95243.06;;;19.32;57.20
11268;BME280;49397;47.474;9.416;2023-06-19T01:45:20;95245.88;;;19.39;56.90
11268;BME280;49397;47.474;9.416;2023-06-19T01:47:45;95251.72;;;19.41;56.89
11268;BME280;49397;47.474;9.416;2023-06-19T01:50:11;95249.97;;;19.52;56.56
11268;BME280;49397;47.474;9.416;2023-06-19T01:52:40;95249.22;;;19.55;57.25
11268;BME280;49397;47.474;9.416;2023-06-19T01:55:05;95251.56;;;19.57;56.49
11268;BME280;49397;47.474;9.416;2023-06-19T01:57:31;95247.38;;;19.63;56.80
11268;BME280;49397;47.474;9.416;2023-06-19T01:59:57;95251.25;;;19.62;56.80
11268;BME280;49397;47.474;9.416;2023-06-19T02:02:22;95258.59;;;19.61;56.88
11268;BME280;49397;47.474;9.416;2023-06-19T02:04:48;95254.31;;;19.60;56.74
11268;BME280;49397;47.474;9.416;2023-06-19T02:07:13;95259.00;;;19.63;56.53
11268;BME280;49397;47.474;9.416;2023-06-19T02:09:39;95264.06;;;19.65;55.68
11268;BME280;49397;47.474;9.416;2023-06-19T02:12:05;95256.25;;;19.60;57.14
11268;BME280;49397;47.474;9.416;2023-06-19T02:14:30;95253.91;;;19.58;57.26
11268;BME280;49397;47.474;9.416;2023-06-19T02:16:56;95251.25;;;19.62;56.53
11268;BME280;49397;47.474;9.416;2023-06-19T02:19:21;95259.09;;;19.70;55.33
11268;BME280;49397;47.474;9.416;2023-06-19T02:21:47;95266.41;;;19.66;56.96
11268;BME280;49397;47.474;9.416;2023-06-19T02:24:12;95258.94;;;19.60;57.25
11268;BME280;49397;47.474;9.416;2023-06-19T02:26:38;95268.50;;;19.50;57.26
11268;BME280;49397;47.474;9.416;2023-06-19T02:29:03;95267.41;;;19.54;56.82
11268;BME280;49397;47.474;9.416;2023-06-19T02:31:29;95266.84;;;19.42;58.49
11268;BME280;49397;47.474;9.416;2023-06-19T02:33:54;95280.88;;;19.47;57.48
11268;BME280;49397;47.474;9.416;2023-06-19T02:36:20;95295.25;;;19.51;57.77
11268;BME280;49397;47.474;9.416;2023-06-19T02:38:46;95298.88;;;19.63;56.99
11268;BME280;49397;47.474;9.416;2023-06-19T02:41:12;95301.66;;;19.66;56.81
11268;BME280;49397;47.474;9.416;2023-06-19T02:43:39;95310.16;;;19.65;57.51
11268;BME280;49397;47.474;9.416;2023-06-19T02:46:05;95309.47;;;19.71;56.28
11268;BME280;49397;47.474;9.416;2023-06-19T02:48:31;95319.19;;;19.76;55.92
11268;BME280;49397;47.474;9.416;2023-06-19T02:50:56;95322.75;;;19.80;54.97
11268;BME280;49397;47.474;9.416;2023-06-19T02:53:21;95329.47;;;19.89;54.72
11268;BME280;49397;47.474;9.416;2023-06-19T02:55:47;95333.00;;;19.93;54.50
11268;BME280;49397;47.474;9.416;2023-06-19T02:58:12;95338.84;;;19.95;54.98
11268;BME280;49397;47.474;9.416;2023-06-19T03:00:38;95351.66;;;19.98;54.98
11268;BME280;49397;47.474;9.416;2023-06-19T03:03:04;95352.84;;;20.01;54.86
11268;BME280;49397;47.474;9.416;2023-06-19T03:05:29;95355.16;;;19.99;54.84
11268;BME280;49397;47.474;9.416;2023-06-19T03:07:55;95364.50;;;20.01;55.15
11268;BME280;49397;47.474;9.416;2023-06-19T03:10:20;95369.13;;;20.01;54.96
11268;BME280;49397;47.474;9.416;2023-06-19T03:12:46;95372.22;;;19.99;54.69
11268;BME280;49397;47.474;9.416;2023-06-19T03:15:11;95381.84;;;19.93;55.69
11268;BME280;49397;47.474;9.416;2023-06-19T03:17:37;95382.56;;;19.90;55.25
11268;BME280;49397;47.474;9.416;2023-06-19T03:20:02;95387.06;;;19.79;56.36
11268;BME280;49397;47.474;9.416;2023-06-19T03:22:30;95393.94;;;19.73;56.13
11268;BME280;49397;47.474;9.416;2023-06-19T03:24:56;95392.34;;;19.69;57.14
11268;BME280;49397;47.474;9.416;2023-06-19T03:27:21;95396.53;;;19.66;56.87
11268;BME280;49397;47.474;9.416;2023-06-19T03:29:47;95401.63;;;19.68;57.79
11268;BME280;49397;47.474;9.416;2023-06-19T03:32:12;95397.78;;;19.69;57.94
11268;BME280;49397;47.474;9.416;2023-06-19T03:34:38;95408.13;;;19.63;58.36
11268;BME280;49397;47.474;9.416;2023-06-19T03:37:03;95412.03;;;19.66;59.53
11268;BME280;49397;47.474;9.416;2023-06-19T03:39:29;95406.56;;;19.62;59.36
11268;BME280;49397;47.474;9.416;2023-06-19T03:41:55;95412.72;;;19.59;59.99
11268;BME280;49397;47.474;9.416;2023-06-19T03:44:20;95422.84;;;19.62;59.97
11268;BME280;49397;47.474;9.416;2023-06-19T03:46:46;95419.03;;;19.67;60.13
11268;BME280;49397;47.474;9.416;2023-06-19T03:49:12;95414.75;;;19.66;60.49
11268;BME280;49397;47.474;9.416;2023-06-19T03:51:38;95421.47;;;19.75;60.01
11268;BME280;49397;47.474;9.416;2023-06-19T03:54:03;95416.09;;;19.79;60.71
11268;BME280;49397;47.474;9.416;2023-06-19T03:56:29;95411.56;;;19.86;60.36
11268;BME280;49397;47.474;9.416;2023-06-19T03:58:54;95415.84;;;19.87;60.43
11268;BME280;49397;47.474;9.416;2023-06-19T04:01:20;95422.94;;;19.95;59.81
11268;BME280;49397;47.474;9.416;2023-06-19T04:03:45;95417.50;;;19.95;60.44
11268;BME280;49397;47.474;9.416;2023-06-19T04:06:11;95420.63;;;19.97;60.17
11268;BME280;49397;47.474;9.416;2023-06-19T04:08:36;95425.69;;;19.99;60.28
11268;BME280;49397;47.474;9.416;2023-06-19T04:11:02;95431.59;;;20.04;60.39
11268;BME280;49397;47.474;9.416;2023-06-19T04:13:27;95423.81;;;20.03;60.33
11268;BME280;49397;47.474;9.416;2023-06-19T04:15:53;95431.81;;;19.92;60.80
11268;BME280;49397;47.474;9.416;2023-06-19T04:18:18;95439.84;;;19.85;60.58
11268;BME280;49397;47.474;9.416;2023-06-19T04:20:44;95435.97;;;19.86;60.95
11268;BME280;49397;47.474;9.416;2023-06-19T04:23:09;95437.63;;;19.91;60.89
11268;BME280;49397;47.474;9.416;2023-06-19T04:25:35;95447.69;;;19.90;61.24
11268;BME280;49397;47.474;9.416;2023-06-19T04:28:00;95458.00;;;19.81;61.41
11268;BME280;49397;47.474;9.416;2023-06-19T04:30:29;95461.13;;;19.83;61.55
11268;BME280;49397;47.474;9.416;2023-06-19T04:32:57;95449.53;;;19.86;61.42
11268;BME280;49397;47.474;9.416;2023-06-19T04:35:22;95446.84;;;19.86;61.64
11268;BME280;49397;47.474;9.416;2023-06-19T04:37:49;95442.97;;;19.87;61.22
11268;BME280;49397;47.474;9.416;2023-06-19T04:40:14;95446.03;;;19.86;61.82
11268;BME280;49397;47.474;9.416;2023-06-19T04:42:40;95442.19;;;19.87;61.57
11268;BME280;49397;47.474;9.416;2023-06-19T04:45:06;95443.75;;;19.88;61.80
11268;BME280;49397;47.474;9.416;2023-06-19T04:47:33;95450.38;;;19.90;61.55
11268;BME280;49397;47.474;9.416;2023-06-19T04:49:59;95453.91;;;19.94;62.27
11268;BME280;49397;47.474;9.416;2023-06-19T04:52:25;95442.03;;;19.76;65.94
11268;BME280;49397;47.474;9.416;2023-06-19T04:54:50;95454.03;;;19.30;68.21
11268;BME280;49397;47.474;9.416;2023-06-19T04:57:16;95450.28;;;19.15;70.46
11268;BME280;49397;47.474;9.416;2023-06-19T04:59:42;95455.25;;;18.90;71.18
11268;BME280;49397;47.474;9.416;2023-06-19T05:02:10;95453.84;;;18.77;71.57
11268;BME280;49397;47.474;9.416;2023-06-19T05:04:35;95449.22;;;18.59;72.00
11268;BME280;49397;47.474;9.416;2023-06-19T05:07:01;95460.00;;;18.39;72.35
11268;BME280;49397;47.474;9.416;2023-06-19T05:09:27;95465.09;;;18.25;72.78
11268;BME280;49397;47.474;9.416;2023-06-19T05:11:52;95465.16;;;18.10;74.72
11268;BME280;49397;47.474;9.416;2023-06-19T05:14:17;95476.72;;;17.91;76.96
11268;BME280;49397;47.474;9.416;2023-06-19T05:16:43;95495.13;;;17.85;77.82
11268;BME280;49397;47.474;9.416;2023-06-19T05:19:09;95490.53;;;17.70;78.72
11268;BME280;49397;47.474;9.416;2023-06-19T05:21:34;95488.06;;;17.65;79.74
11268;BME280;49397;47.474;9.416;2023-06-19T05:23:59;95502.75;;;17.64;80.36
11268;BME280;49397;47.474;9.416;2023-06-19T05:26:25;95494.88;;;17.59;79.97
11268;BME280;49397;47.474;9.416;2023-06-19T05:28:51;95497.34;;;17.64;81.00
11268;BME280;49397;47.474;9.416;2023-06-19T05:31:17;95483.63;;;17.73;80.23
11268;BME280;49397;47.474;9.416;2023-06-19T05:33:44;95489.75;;;17.70;80.94
11268;BME280;49397;47.474;9.416;2023-06-19T05:36:09;95494.53;;;17.76;80.07
11268;BME280;49397;47.474;9.416;2023-06-19T05:38:35;95494.16;;;17.78;80.55
11268;BME280;49397;47.474;9.416;2023-06-19T05:41:01;95497.06;;;17.69;82.07
11268;BME280;49397;47.474;9.416;2023-06-19T05:43:27;95494.19;;;17.62;82.25
11268;BME280;49397;47.474;9.416;2023-06-19T05:45:53;95490.50;;;17.55;83.00
11268;BME280;49397;47.474;9.416;2023-06-19T05:48:21;95491.47;;;17.62;83.69
11268;BME280;49397;47.474;9.416;2023-06-19T05:50:46;95502.13;;;17.71;82.65
11268;BME280;49397;47.474;9.416;2023-06-19T05:53:12;95503.44;;;17.77;82.41
11268;BME280;49397;47.474;9.416;2023-06-19T05:55:37;95499.25;;;17.79;83.58
11268;BME280;49397;47.474;9.416;2023-06-19T05:58:03;95506.91;;;17.77;82.79
11268;BME280;49397;47.474;9.416;2023-06-19T06:00:30;95506.97;;;17.81;83.31
11268;BME280;49397;47.474;9.416;2023-06-19T06:02:56;95507.25;;;17.91;82.98
11268;BME280;49397;47.474;9.416;2023-06-19T06:05:25;95503.50;;;17.96;82.79
11268;BME280;49397;47.474;9.416;2023-06-19T06:07:50;95513.41;;;18.08;82.13
11268;BME280;49397;47.474;9.416;2023-06-19T06:10:16;95502.22;;;18.25;81.72
11268;BME280;49397;47.474;9.416;2023-06-19T06:12:42;95505.66;;;18.41;80.22
11268;BME280;49397;47.474;9.416;2023-06-19T06:15:08;95504.47;;;18.58;78.78
11268;BME280;49397;47.474;9.416;2023-06-19T06:17:33;95496.28;;;18.73;79.20
11268;BME280;49397;47.474;9.416;2023-06-19T06:19:59;95501.84;;;18.80;78.34
11268;BME280;49397;47.474;9.416;2023-06-19T06:22:25;95496.81;;;18.98;77.95
11268;BME280;49397;47.474;9.416;2023-06-19T06:24:50;95494.00;;;19.14;76.97
11268;BME280;49397;47.474;9.416;2023-06-19T06:27:16;95498.31;;;19.18;77.41
11268;BME280;49397;47.474;9.416;2023-06-19T06:29:41;95489.25;;;19.30;76.87
11268;BME280;49397;47.474;9.416;2023-06-19T06:32:07;95489.59;;;19.47;77.61
11268;BME280;49397;47.474;9.416;2023-06-19T06:34:33;95491.34;;;19.59;76.73
11268;BME280;49397;47.474;9.416;2023-06-19T06:37:00;95491.75;;;19.61;78.62
11268;BME280;49397;47.474;9.416;2023-06-19T06:39:25;95492.69;;;19.69;77.56
11268;BME280;49397;47.474;9.416;2023-06-19T06:41:51;95495.41;;;19.72;78.34
11268;BME280;49397;47.474;9.416;2023-06-19T06:44:17;95486.06;;;19.92;77.89
11268;BME280;49397;47.474;9.416;2023-06-19T06:46:42;95482.25;;;20.23;76.45
11268;BME280;49397;47.474;9.416;2023-06-19T06:49:08;95478.38;;;20.50;77.42
11268;BME280;49397;47.474;9.416;2023-06-19T06:51:33;95476.63;;;20.65;77.09
11268;BME280;49397;47.474;9.416;2023-06-19T06:53:59;95477.09;;;20.71;79.01
11268;BME280;49397;47.474;9.416;2023-06-19T06:56:24;95471.38;;;20.79;78.23
11268;BME280;49397;47.474;9.416;2023-06-19T06:58:50;95466.84;;;20.90;77.94
11268;BME280;49397;47.474;9.416;2023-06-19T07:01:15;95463.31;;;20.86;76.26
11268;BME280;49397;47.474;9.416;2023-06-19T07:03:41;95471.13;;;20.91;75.76
11268;BME280;49397;47.474;9.416;2023-06-19T07:06:06;95459.47;;;20.91;74.02
11268;BME280;49397;47.474;9.416;2023-06-19T07:08:32;95456.88;;;21.01;72.71
11268;BME280;49397;47.474;9.416;2023-06-19T07:10:57;95450.72;;;21.08;73.94
11268;BME280;49397;47.474;9.416;2023-06-19T07:13:23;95438.00;;;21.12;73.81
11268;BME280;49397;47.474;9.416;2023-06-19T07:15:48;95433.34;;;21.16;75.13
11268;BME280;49397;47.474;9.416;2023-06-19T07:18:14;95432.94;;;21.10;75.12
11268;BME280;49397;47.474;9.416;2023-06-19T07:20:39;95431.56;;;21.31;75.78
11268;BME280;49397;47.474;9.416;2023-06-19T07:23:05;95427.63;;;21.72;73.69
11268;BME280;49397;47.474;9.416;2023-06-19T07:25:31;95419.31;;;22.02;72.62
11268;BME280;49397;47.474;9.416;2023-06-19T07:27:59;95415.34;;;21.92;72.27
11268;BME280;49397;47.474;9.416;2023-06-19T07:30:25;95415.59;;;21.77;72.31
11268;BME280;49397;47.474;9.416;2023-06-19T07:32:51;95414.81;;;21.76;73.29
11268;BME280;49397;47.474;9.416;2023-06-19T07:35:16;95416.59;;;22.02;72.82
11268;BME280;49397;47.474;9.416;2023-06-19T07:37:42;95427.88;;;22.00;72.02
11268;BME280;49397;47.474;9.416;2023-06-19T07:40:08;95430.91;;;21.95;71.27
11268;BME280;49397;47.474;9.416;2023-06-19T07:42:33;95445.44;;;22.13;72.47
11268;BME280;49397;47.474;9.416;2023-06-19T07:44:59;95443.91;;;22.16;72.21
11268;BME280;49397;47.474;9.416;2023-06-19T07:47:26;95436.06;;;22.04;68.53
11268;BME280;49397;47.474;9.416;2023-06-19T07:49:51;95428.44;;;22.34;68.56
11268;BME280;49397;47.474;9.416;2023-06-19T07:52:17;95433.97;;;22.48;68.69
11268;BME280;49397;47.474;9.416;2023-06-19T07:54:53;95430.88;;;22.57;68.28
11268;BME280;49397;47.474;9.416;2023-06-19T07:57:19;95416.41;;;22.39;66.87
11268;BME280;49397;47.474;9.416;2023-06-19T07:59:46;95416.44;;;22.46;67.71
11268;BME280;49397;47.474;9.416;2023-06-19T08:04:36;95403.66;;;22.64;67.53
11268;BME280;49397;47.474;9.416;2023-06-19T08:07:02;95397.09;;;22.69;68.25
11268;BME280;49397;47.474;9.416;2023-06-19T08:09:28;95387.28;;;22.53;68.72
11268;BME280;49397;47.474;9.416;2023-06-19T08:11:53;95384.16;;;22.48;67.66
11268;BME280;49397;47.474;9.416;2023-06-19T08:14:19;95370.16;;;22.53;66.50
11268;BME280;49397;47.474;9.416;2023-06-19T08:16:45;95366.66;;;22.56;67.92
11268;BME280;49397;47.474;9.416;2023-06-19T08:19:10;95368.94;;;22.40;67.33
11268;BME280;49397;47.474;9.416;2023-06-19T08:21:36;95368.19;;;22.43;67.90
11268;BME280;49397;47.474;9.416;2023-06-19T08:24:01;95367.06;;;22.54;68.15
11268;BME280;49397;47.474;9.416;2023-06-19T08:26:27;95358.97;;;22.76;66.09
11268;BME280;49397;47.474;9.416;2023-06-19T08:28:53;95364.41;;;22.79;64.35
11268;BME280;49397;47.474;9.416;2023-06-19T08:31:19;95363.28;;;22.84;65.92
11268;BME280;49397;47.474;9.416;2023-06-19T08:33:46;95360.59;;;23.30;65.87
11268;BME280;49397;47.474;9.416;2023-06-19T08:36:13;95357.91;;;23.47;63.78
11268;BME280;49397;47.474;9.416;2023-06-19T08:38:39;95349.28;;;23.77;62.65
11268;BME280;49397;47.474;9.416;2023-06-19T08:41:04;95355.47;;;24.06;61.10
11268;BME280;49397;47.474;9.416;2023-06-19T08:43:30;95359.25;;;24.44;60.35
11268;BME280;49397;47.474;9.416;2023-06-19T08:46:16;95357.38;;;24.23;60.54
11268;BME280;49397;47.474;9.416;2023-06-19T08:48:43;95360.13;;;24.16;60.88
11268;BME280;49397;47.474;9.416;2023-06-19T08:51:12;95358.59;;;24.04;60.50
11268;BME280;49397;47.474;9.416;2023-06-19T08:53:54;95367.16;;;24.20;62.19
11268;BME280;49397;47.474;9.416;2023-06-19T08:56:19;95365.63;;;23.91;61.98
11268;BME280;49397;47.474;9.416;2023-06-19T08:58:45;95375.75;;;23.98;63.15
11268;BME280;49397;47.474;9.416;2023-06-19T09:01:11;95371.03;;;24.27;61.65
11268;BME280;49397;47.474;9.416;2023-06-19T09:03:36;95376.50;;;24.16;62.33
11268;BME280;49397;47.474;9.416;2023-06-19T09:06:08;95375.22;;;24.49;61.30
11268;BME280;49397;47.474;9.416;2023-06-19T09:08:35;95373.59;;;24.69;59.91
11268;BME280;49397;47.474;9.416;2023-06-19T09:11:02;95375.50;;;24.75;59.56
11268;BME280;49397;47.474;9.416;2023-06-19T09:13:28;95377.81;;;24.81;59.43
11268;BME280;49397;47.474;9.416;2023-06-19T09:16:04;95377.81;;;24.81;58.13
11268;BME280;49397;47.474;9.416;2023-06-19T09:18:31;95378.63;;;24.70;58.80
11268;BME280;49397;47.474;9.416;2023-06-19T09:20:57;95382.59;;;24.59;58.04
11268;BME280;49397;47.474;9.416;2023-06-19T09:23:24;95382.81;;;24.96;56.96
11268;BME280;49397;47.474;9.416;2023-06-19T09:25:54;95384.22;;;25.25;56.85
11268;BME280;49397;47.474;9.416;2023-06-19T09:28:24;95387.28;;;25.31;56.70
11268;BME280;49397;47.474;9.416;2023-06-19T09:33:25;95377.91;;;25.32;55.99
11268;BME280;49397;47.474;9.416;2023-06-19T09:35:51;95370.00;;;25.45;55.32
11268;BME280;49397;47.474;9.416;2023-06-19T09:38:21;95372.00;;;25.37;54.65
11268;BME280;49397;47.474;9.416;2023-06-19T09:40:47;95379.06;;;25.31;53.73
11268;BME280;49397;47.474;9.416;2023-06-19T09:43:19;95374.66;;;25.51;54.23
11268;BME280;49397;47.474;9.416;2023-06-19T09:45:48;95378.38;;;25.75;54.00
11268;BME280;49397;47.474;9.416;2023-06-19T09:48:24;95371.91;;;25.55;54.58
11268;BME280;49397;47.474;9.416;2023-06-19T09:50:54;95375.69;;;25.68;54.67
11268;BME280;49397;47.474;9.416;2023-06-19T09:53:20;95373.38;;;25.63;52.91
11268;BME280;49397;47.474;9.416;2023-06-19T09:55:49;95370.88;;;26.20;53.72
11268;BME280;49397;47.474;9.416;2023-06-19T09:58:18;95375.63;;;26.50;53.22
11268;BME280;49397;47.474;9.416;2023-06-19T10:00:44;95381.38;;;26.28;52.45
11268;BME280;49397;47.474;9.416;2023-06-19T10:03:14;95382.28;;;26.49;52.82
11268;BME280;49397;47.474;9.416;2023-06-19T10:05:40;95386.78;;;26.66;52.77
11268;BME280;49397;47.474;9.416;2023-06-19T10:08:06;95384.19;;;26.89;52.54
11268;BME280;49397;47.474;9.416;2023-06-19T10:10:32;95379.44;;;26.59;52.50
11268;BME280;49397;47.474;9.416;2023-06-19T10:13:11;95379.50;;;26.52;51.00
11268;BME280;49397;47.474;9.416;2023-06-19T10:15:40;95387.75;;;26.86;49.51
11268;BME280;49397;47.474;9.416;2023-06-19T10:18:15;95380.34;;;26.79;51.21
11268;BME280;49397;47.474;9.416;2023-06-19T10:20:42;95387.38;;;26.16;51.60
11268;BME280;49397;47.474;9.416;2023-06-19T10:25:44;95379.91;;;26.54;51.82
11268;BME280;49397;47.474;9.416;2023-06-19T10:28:20;95375.34;;;26.71;49.15
11268;BME280;49397;47.474;9.416;2023-06-19T10:30:57;95374.25;;;26.99;48.96
11268;BME280;49397;47.474;9.416;2023-06-19T10:33:27;95369.00;;;26.81;48.10
11268;BME280;49397;47.474;9.416;2023-06-19T10:35:53;95361.53;;;27.12;49.62
11268;BME280;49397;47.474;9.416;2023-06-19T10:38:19;95368.25;;;27.34;49.05
11268;BME280;49397;47.474;9.416;2023-06-19T10:40:45;95359.16;;;27.37;49.64
11268;BME280;49397;47.474;9.416;2023-06-19T10:43:13;95350.50;;;27.65;49.56
11268;BME280;49397;47.474;9.416;2023-06-19T10:45:44;95352.47;;;27.38;47.73
11268;BME280;49397;47.474;9.416;2023-06-19T10:48:09;95351.94;;;27.23;46.77
11268;BME280;49397;47.474;9.416;2023-06-19T10:50:37;95350.38;;;27.49;46.97
11268;BME280;49397;47.474;9.416;2023-06-19T10:53:03;95346.69;;;27.59;46.67
11268;BME280;49397;47.474;9.416;2023-06-19T10:55:29;95348.59;;;27.35;46.79
11268;BME280;49397;47.474;9.416;2023-06-19T10:57:55;95348.94;;;27.64;45.97
11268;BME280;49397;47.474;9.416;2023-06-19T11:02:49;95352.22;;;27.56;44.80
11268;BME280;49397;47.474;9.416;2023-06-19T11:05:14;95340.91;;;27.73;44.47
11268;BME280;49397;47.474;9.416;2023-06-19T11:07:40;95341.59;;;27.81;45.86
11268;BME280;49397;47.474;9.416;2023-06-19T11:10:06;95330.88;;;27.86;44.79
11268;BME280;49397;47.474;9.416;2023-06-19T11:12:32;95323.75;;;28.12;43.71
11268;BME280;49397;47.474;9.416;2023-06-19T11:15:05;95324.69;;;28.25;43.85
11268;BME280;49397;47.474;9.416;2023-06-19T11:17:31;95319.66;;;28.40;42.30
11268;BME280;49397;47.474;9.416;2023-06-19T11:19:57;95320.41;;;28.80;43.42
11268;BME280;49397;47.474;9.416;2023-06-19T11:22:36;95321.97;;;28.61;42.27
11268;BME280;49397;47.474;9.416;2023-06-19T11:25:02;95323.69;;;28.35;42.22
11268;BME280;49397;47.474;9.416;2023-06-19T11:27:30;95317.41;;;28.15;40.45
11268;BME280;49397;47.474;9.416;2023-06-19T11:29:56;95320.56;;;28.53;43.49
11268;BME280;49397;47.474;9.416;2023-06-19T11:32:33;95320.09;;;28.58;41.95
11268;BME280;49397;47.474;9.416;2023-06-19T11:35:11;95314.16;;;28.96;41.85
11268;BME280;49397;47.474;9.416;2023-06-19T11:37:42;95311.91;;;28.74;41.65
11268;BME280;49397;47.474;9.416;2023-06-19T11:40:09;95313.81;;;28.77;43.18
11268;BME280;49397;47.474;9.416;2023-06-19T11:42:51;95319.88;;;28.69;43.17
11268;BME280;49397;47.474;9.416;2023-06-19T11:45:17;95318.66;;;28.50;41.42
11268;BME280;49397;47.474;9.416;2023-06-19T11:47:45;95310.91;;;28.84;42.70
11268;BME280;49397;47.474;9.416;2023-06-19T11:50:13;95309.59;;;29.25;40.00
11268;BME280;49397;47.474;9.416;2023-06-19T11:52:39;95307.69;;;29.54;39.50
11268;BME280;49397;47.474;9.416;2023-06-19T11:55:05;95309.09;;;29.10;39.08
11268;BME280;49397;47.474;9.416;2023-06-19T11:57:31;95306.19;;;29.17;38.78
11268;BME280;49397;47.474;9.416;2023-06-19T11:59:58;95307.97;;;29.08;39.00
11268;BME280;49397;47.474;9.416;2023-06-19T12:02:23;95305.25;;;29.56;39.76
11268;BME280;49397;47.474;9.416;2023-06-19T12:04:49;95304.91;;;29.86;38.44
11268;BME280;49397;47.474;9.416;2023-06-19T12:07:15;95308.28;;;29.13;38.43
11268;BME280;49397;47.474;9.416;2023-06-19T12:09:41;95304.88;;;30.03;38.04
11268;BME280;49397;47.474;9.416;2023-06-19T12:12:08;95301.75;;;30.01;37.68
11268;BME280;49397;47.474;9.416;2023-06-19T12:14:34;95302.25;;;29.83;38.19
11268;BME280;49397;47.474;9.416;2023-06-19T12:16:59;95310.56;;;30.24;39.54
11268;BME280;49397;47.474;9.416;2023-06-19T12:19:26;95299.72;;;30.17;38.50
11268;BME280;49397;47.474;9.416;2023-06-19T12:21:53;95290.56;;;29.30;37.45
11268;BME280;49397;47.474;9.416;2023-06-19T12:24:18;95291.25;;;30.24;37.88
11268;BME280;49397;47.474;9.416;2023-06-19T12:26:44;95294.13;;;29.92;36.92
11268;BME280;49397;47.474;9.416;2023-06-19T12:29:10;95289.34;;;30.09;36.78
11268;BME280;49397;47.474;9.416;2023-06-19T12:31:35;95287.91;;;30.17;37.11
11268;BME280;49397;47.474;9.416;2023-06-19T12:34:02;95284.09;;;29.98;37.12
11268;BME280;49397;47.474;9.416;2023-06-19T12:36:28;95280.97;;;30.12;36.47
11268;BME280;49397;47.474;9.416;2023-06-19T12:38:56;95275.84;;;29.82;36.83
11268;BME280;49397;47.474;9.416;2023-06-19T12:41:22;95270.75;;;29.19;39.47
11268;BME280;49397;47.474;9.416;2023-06-19T12:43:48;95277.22;;;29.90;38.65
11268;BME280;49397;47.474;9.416;2023-06-19T12:46:14;95265.59;;;29.21;38.12
11268;BME280;49397;47.474;9.416;2023-06-19T12:48:41;95260.69;;;29.45;38.85
11268;BME280;49397;47.474;9.416;2023-06-19T12:51:07;95260.84;;;29.54;36.89
11268;BME280;49397;47.474;9.416;2023-06-19T12:53:32;95270.53;;;29.75;38.60
11268;BME280;49397;47.474;9.416;2023-06-19T12:55:59;95266.41;;;30.12;37.79
11268;BME280;49397;47.474;9.416;2023-06-19T12:58:25;95264.47;;;29.51;38.55
11268;BME280;49397;47.474;9.416;2023-06-19T13:00:51;95259.22;;;29.08;38.17
11268;BME280;49397;47.474;9.416;2023-06-19T13:03:17;95258.88;;;29.06;39.92
11268;BME280;49397;47.474;9.416;2023-06-19T13:05:45;95252.06;;;28.95;38.81
11268;BME280;49397;47.474;9.416;2023-06-19T13:08:11;95245.38;;;29.28;39.75